Back to Top

Language: 

My Weather Underground Personal Weather Station Historical Data with Graphs...

Delerius Weather Station Historical Data
Daily Summary for May 28, 2017 Units:  English    Metric   Both
« Previous Day
Next Day »
Daily Weekly Monthly Yearly Custom
  High: Low: Average:
Temperature: 69.6 °F 57.7 °F 62.8 °F
Dew Point: 56.7 °F 54.1 °F 55.2 °F
Humidity: 88 % 61 % 77 %
Wind Speed: 16.0 mph 0.0 mph 7.2 mph
Wind Gust: 27.0 mph - -
Wind:- - West
Pressure: 30.05 in 29.89 in -
Precipitation: 0.00 in    
Historical Graphs
 
 
Tabular Data for May 28, 2017
Time Temperature Dew Point Pressure Wind Wind Speed Wind Gust Humidity Rainfall Rate (Hourly) solar Conditions
00:03 59.9 °F 55.4 °F 29.89 in SW 12.0 mph 23.0 mph 85 % 0.00 in 0 W/m2
00:08 59.9 °F 55.4 °F 29.89 in WSW 12.0 mph 21.0 mph 85 % 0.00 in 0 W/m2
00:13 59.9 °F 55.4 °F 29.89 in WSW 12.0 mph 24.0 mph 85 % 0.00 in 0 W/m2
00:18 59.9 °F 55.4 °F 29.89 in WSW 12.0 mph 24.0 mph 85 % 0.00 in 0 W/m2
00:23 59.9 °F 55.4 °F 29.90 in WSW 12.0 mph 20.0 mph 85 % 0.00 in 0 W/m2
00:28 60.1 °F 55.2 °F 29.90 in SW 11.0 mph 22.0 mph 84 % 0.00 in 0 W/m2
00:33 60.1 °F 55.2 °F 29.90 in SW 11.0 mph 22.0 mph 84 % 0.00 in 0 W/m2
00:38 60.1 °F 55.2 °F 29.90 in WSW 9.0 mph 16.0 mph 84 % 0.00 in 0 W/m2
00:43 60.1 °F 55.2 °F 29.90 in WSW 10.0 mph 20.0 mph 84 % 0.00 in 0 W/m2
00:48 60.1 °F 55.2 °F 29.91 in WSW 10.0 mph 20.0 mph 84 % 0.00 in 0 W/m2
00:53 60.1 °F 55.2 °F 29.90 in WSW 8.0 mph 18.0 mph 84 % 0.00 in 0 W/m2
00:58 60.1 °F 55.2 °F 29.91 in WSW 8.0 mph 16.0 mph 84 % 0.00 in 0 W/m2
01:03 60.1 °F 55.2 °F 29.91 in WSW 8.0 mph 19.0 mph 84 % 0.00 in 0 W/m2
01:08 59.9 °F 55.1 °F 29.91 in WSW 7.0 mph 19.0 mph 84 % 0.00 in 0 W/m2
01:13 59.9 °F 55.1 °F 29.92 in WSW 6.0 mph 11.0 mph 84 % 0.00 in 0 W/m2
01:19 59.9 °F 55.1 °F 29.92 in WSW 6.0 mph 11.0 mph 84 % 0.00 in 0 W/m2
01:24 59.9 °F 55.1 °F 29.92 in West 4.0 mph 11.0 mph 84 % 0.00 in 0 W/m2
01:29 59.9 °F 55.1 °F 29.92 in West 2.0 mph 6.0 mph 84 % 0.00 in 0 W/m2
01:34 60.1 °F 55.2 °F 29.92 in SSW 2.0 mph 11.0 mph 84 % 0.00 in 0 W/m2
01:39 60.1 °F 55.2 °F 29.93 in SW 5.0 mph 14.0 mph 84 % 0.00 in 0 W/m2
01:44 60.1 °F 55.2 °F 29.93 in WSW 5.0 mph 14.0 mph 84 % 0.00 in 0 W/m2
01:49 60.1 °F 55.2 °F 29.93 in WSW 7.0 mph 14.0 mph 84 % 0.00 in 0 W/m2
01:54 60.1 °F 55.2 °F 29.93 in WSW 8.0 mph 14.0 mph 84 % 0.00 in 0 W/m2
01:59 60.1 °F 55.6 °F 29.93 in WSW 8.0 mph 15.0 mph 85 % 0.00 in 0 W/m2
02:04 60.1 °F 55.6 °F 29.93 in WSW 7.0 mph 15.0 mph 85 % 0.00 in 0 W/m2
02:05 60.1 °F 55.6 °F 29.93 in WSW 7.0 mph 15.0 mph 85 % 0.00 in 0 W/m2
02:10 60.1 °F 55.6 °F 29.93 in WSW 5.0 mph 10.0 mph 85 % 0.00 in 0 W/m2
02:16 60.1 °F 55.6 °F 29.94 in WSW 4.0 mph 10.0 mph 85 % 0.00 in 0 W/m2
02:20 60.1 °F 55.6 °F 29.94 in WSW 4.0 mph 13.0 mph 85 % 0.00 in 0 W/m2
02:26 59.9 °F 55.7 °F 29.94 in West 6.0 mph 22.0 mph 86 % 0.00 in 0 W/m2
02:31 59.7 °F 55.5 °F 29.94 in West 7.0 mph 22.0 mph 86 % 0.00 in 0 W/m2
02:36 59.7 °F 55.5 °F 29.94 in West 6.0 mph 15.0 mph 86 % 0.00 in 0 W/m2
02:41 59.7 °F 55.5 °F 29.94 in WSW 5.0 mph 15.0 mph 86 % 0.00 in 0 W/m2
02:46 59.7 °F 55.5 °F 29.94 in West 7.0 mph 14.0 mph 86 % 0.00 in 0 W/m2
02:51 59.5 °F 55.3 °F 29.94 in West 7.0 mph 14.0 mph 86 % 0.00 in 0 W/m2
02:56 59.5 °F 55.3 °F 29.94 in West 8.0 mph 18.0 mph 86 % 0.00 in 0 W/m2
03:01 59.4 °F 55.5 °F 29.94 in West 10.0 mph 20.0 mph 87 % 0.00 in 0 W/m2
03:06 59.4 °F 55.5 °F 29.94 in WNW 8.0 mph 20.0 mph 87 % 0.00 in 0 W/m2
03:11 59.4 °F 55.5 °F 29.94 in WNW 6.0 mph 12.0 mph 87 % 0.00 in 0 W/m2
03:16 59.2 °F 55.3 °F 29.95 in WNW 5.0 mph 10.0 mph 87 % 0.00 in 0 W/m2
03:21 59.2 °F 55.3 °F 29.95 in West 9.0 mph 20.0 mph 87 % 0.00 in 0 W/m2
03:26 59.2 °F 55.0 °F 29.95 in West 12.0 mph 22.0 mph 86 % 0.00 in 0 W/m2
03:31 59.2 °F 55.0 °F 29.95 in West 12.0 mph 22.0 mph 86 % 0.00 in 0 W/m2
03:36 59.2 °F 55.0 °F 29.95 in West 11.0 mph 21.0 mph 86 % 0.00 in 0 W/m2
03:41 59.2 °F 55.0 °F 29.95 in WSW 12.0 mph 20.0 mph 86 % 0.00 in 0 W/m2
03:46 59.2 °F 55.0 °F 29.95 in WSW 11.0 mph 20.0 mph 86 % 0.00 in 0 W/m2
03:51 59.2 °F 55.0 °F 29.95 in WSW 9.0 mph 15.0 mph 86 % 0.00 in 0 W/m2
03:56 59.2 °F 55.0 °F 29.95 in West 10.0 mph 20.0 mph 86 % 0.00 in 0 W/m2
04:01 59.0 °F 54.8 °F 29.95 in West 11.0 mph 20.0 mph 86 % 0.00 in 0 W/m2
04:06 59.0 °F 54.8 °F 29.95 in West 11.0 mph 20.0 mph 86 % 0.00 in 0 W/m2
04:11 58.8 °F 54.6 °F 29.95 in West 11.0 mph 20.0 mph 86 % 0.00 in 0 W/m2
04:16 58.8 °F 54.6 °F 29.95 in West 12.0 mph 20.0 mph 86 % 0.00 in 0 W/m2
04:21 58.6 °F 54.1 °F 29.95 in West 13.0 mph 23.0 mph 85 % 0.00 in 0 W/m2
04:26 58.6 °F 54.1 °F 29.95 in WSW 13.0 mph 23.0 mph 85 % 0.00 in 0 W/m2
04:31 58.6 °F 54.5 °F 29.95 in West 12.0 mph 23.0 mph 86 % 0.00 in 0 W/m2
04:36 58.6 °F 54.1 °F 29.95 in West 14.0 mph 23.0 mph 85 % 0.00 in 0 W/m2
04:41 58.6 °F 54.1 °F 29.95 in West 15.0 mph 23.0 mph 85 % 0.00 in 0 W/m2
04:46 58.5 °F 54.3 °F 29.94 in West 16.0 mph 26.0 mph 86 % 0.00 in 0 W/m2
04:51 58.3 °F 54.1 °F 29.94 in West 16.0 mph 27.0 mph 86 % 0.00 in 5 W/m2
04:56 58.3 °F 54.1 °F 29.95 in West 16.0 mph 27.0 mph 86 % 0.00 in 5 W/m2
05:01 58.3 °F 54.4 °F 29.95 in West 15.0 mph 25.0 mph 87 % 0.00 in 7 W/m2
05:06 58.1 °F 54.2 °F 29.95 in West 13.0 mph 24.0 mph 87 % 0.00 in 7 W/m2
05:11 57.9 °F 54.4 °F 29.96 in West 13.0 mph 21.0 mph 88 % 0.00 in 7 W/m2
05:16 57.9 °F 54.4 °F 29.96 in West 13.0 mph 23.0 mph 88 % 0.00 in 9 W/m2
05:22 57.9 °F 54.4 °F 29.96 in West 12.0 mph 23.0 mph 88 % 0.00 in 9 W/m2
05:27 57.7 °F 54.2 °F 29.96 in West 11.0 mph 21.0 mph 88 % 0.00 in 11 W/m2
05:32 57.7 °F 54.2 °F 29.96 in WNW 11.0 mph 21.0 mph 88 % 0.00 in 14 W/m2
05:37 57.7 °F 54.2 °F 29.96 in West 12.0 mph 21.0 mph 88 % 0.00 in 23 W/m2
05:42 57.7 °F 54.2 °F 29.96 in West 13.0 mph 21.0 mph 88 % 0.00 in 26 W/m2
05:47 57.7 °F 54.2 °F 29.96 in West 12.0 mph 19.0 mph 88 % 0.00 in 33 W/m2
05:52 57.7 °F 54.2 °F 29.97 in West 12.0 mph 23.0 mph 88 % 0.00 in 26 W/m2
05:57 57.7 °F 54.2 °F 29.97 in West 12.0 mph 23.0 mph 88 % 0.00 in 23 W/m2
06:02 57.7 °F 54.2 °F 29.97 in West 11.0 mph 20.0 mph 88 % 0.00 in 28 W/m2
06:07 57.7 °F 54.2 °F 29.97 in West 10.0 mph 16.0 mph 88 % 0.00 in 37 W/m2
06:12 57.9 °F 54.4 °F 29.97 in West 8.0 mph 16.0 mph 88 % 0.00 in 28 W/m2
06:17 57.9 °F 54.4 °F 29.98 in West 7.0 mph 14.0 mph 88 % 0.00 in 30 W/m2
06:22 57.9 °F 54.4 °F 29.98 in West 7.0 mph 13.0 mph 88 % 0.00 in 32 W/m2
06:27 58.1 °F 54.6 °F 29.98 in WNW 7.0 mph 13.0 mph 88 % 0.00 in 39 W/m2
06:32 58.3 °F 54.4 °F 29.98 in WNW 7.0 mph 13.0 mph 87 % 0.00 in 49 W/m2
06:36 58.3 °F 54.4 °F 29.99 in WNW 8.0 mph 15.0 mph 87 % 0.00 in 51 W/m2
06:41 58.3 °F 54.4 °F 29.99 in WNW 8.0 mph 15.0 mph 87 % 0.00 in 58 W/m2
06:46 58.3 °F 54.4 °F 29.99 in WNW 8.0 mph 15.0 mph 87 % 0.00 in 54 W/m2
06:51 58.5 °F 54.6 °F 29.99 in WNW 7.0 mph 15.0 mph 87 % 0.00 in 46 W/m2
06:56 58.5 °F 54.6 °F 30.00 in West 6.0 mph 13.0 mph 87 % 0.00 in 23 W/m2
07:01 58.3 °F 54.4 °F 30.00 in WSW 6.0 mph 13.0 mph 87 % 0.00 in 23 W/m2
07:06 58.3 °F 54.4 °F 30.00 in WSW 5.0 mph 15.0 mph 87 % 0.00 in 35 W/m2
07:11 58.1 °F 54.2 °F 30.00 in West 7.0 mph 20.0 mph 87 % 0.00 in 40 W/m2
07:16 57.9 °F 54.1 °F 30.00 in West 9.0 mph 20.0 mph 87 % 0.00 in 44 W/m2
07:21 57.9 °F 54.4 °F 30.00 in West 7.0 mph 14.0 mph 88 % 0.00 in 47 W/m2
07:26 57.9 °F 54.4 °F 30.00 in West 7.0 mph 13.0 mph 88 % 0.00 in 56 W/m2
07:31 57.9 °F 54.4 °F 30.00 in West 7.0 mph 13.0 mph 88 % 0.00 in 67 W/m2
07:36 57.9 °F 54.4 °F 30.00 in WNW 7.0 mph 13.0 mph 88 % 0.00 in 77 W/m2
07:41 57.9 °F 54.4 °F 30.00 in West 7.0 mph 12.0 mph 88 % 0.00 in 86 W/m2
07:46 57.9 °F 54.4 °F 30.00 in WNW 8.0 mph 16.0 mph 88 % 0.00 in 77 W/m2
07:51 57.9 °F 54.1 °F 30.00 in WNW 10.0 mph 20.0 mph 87 % 0.00 in 118 W/m2
07:57 58.1 °F 54.2 °F 30.00 in WNW 10.0 mph 20.0 mph 87 % 0.00 in 102 W/m2
08:02 58.3 °F 54.4 °F 30.00 in WNW 10.0 mph 15.0 mph 87 % 0.00 in 142 W/m2
08:07 58.3 °F 54.1 °F 30.00 in WNW 10.0 mph 18.0 mph 86 % 0.00 in 100 W/m2
08:11 58.3 °F 54.4 °F 30.00 in WNW 10.0 mph 18.0 mph 87 % 0.00 in 114 W/m2
08:16 58.3 °F 54.4 °F 30.01 in WNW 11.0 mph 20.0 mph 87 % 0.00 in 148 W/m2
08:21 58.3 °F 54.4 °F 30.01 in WNW 11.0 mph 20.0 mph 87 % 0.00 in 148 W/m2
08:27 58.5 °F 54.6 °F 30.01 in WNW 10.0 mph 23.0 mph 87 % 0.00 in 199 W/m2
08:32 58.6 °F 54.5 °F 30.01 in WNW 12.0 mph 23.0 mph 86 % 0.00 in 156 W/m2
08:37 58.8 °F 54.6 °F 30.01 in WNW 12.0 mph 21.0 mph 86 % 0.00 in 169 W/m2
08:42 58.8 °F 54.6 °F 30.01 in WNW 11.0 mph 20.0 mph 86 % 0.00 in 158 W/m2
08:47 58.8 °F 54.6 °F 30.02 in West 11.0 mph 22.0 mph 86 % 0.00 in 132 W/m2
08:52 58.6 °F 54.5 °F 30.02 in WNW 11.0 mph 22.0 mph 86 % 0.00 in 167 W/m2
08:57 58.8 °F 54.6 °F 30.03 in WNW 8.0 mph 19.0 mph 86 % 0.00 in 162 W/m2
09:02 59.0 °F 54.5 °F 30.03 in NW 7.0 mph 13.0 mph 85 % 0.00 in 167 W/m2
09:07 59.2 °F 54.3 °F 30.02 in WNW 8.0 mph 14.0 mph 84 % 0.00 in 315 W/m2
09:12 59.5 °F 54.7 °F 30.03 in WNW 8.0 mph 15.0 mph 84 % 0.00 in 241 W/m2
09:17 59.9 °F 54.7 °F 30.03 in WNW 9.0 mph 15.0 mph 83 % 0.00 in 218 W/m2
09:22 60.1 °F 54.9 °F 30.03 in WNW 9.0 mph 15.0 mph 83 % 0.00 in 302 W/m2
09:27 60.4 °F 54.9 °F 30.03 in WNW 10.0 mph 21.0 mph 82 % 0.00 in 244 W/m2
09:32 60.8 °F 54.9 °F 30.03 in WNW 12.0 mph 21.0 mph 81 % 0.00 in 281 W/m2
09:37 60.8 °F 54.9 °F 30.04 in WNW 11.0 mph 21.0 mph 81 % 0.00 in 214 W/m2
09:42 60.6 °F 54.8 °F 30.04 in WNW 11.0 mph 18.0 mph 81 % 0.00 in 218 W/m2
09:47 60.4 °F 54.6 °F 30.04 in WNW 11.0 mph 22.0 mph 81 % 0.00 in 207 W/m2
09:52 60.3 °F 54.4 °F 30.04 in WNW 11.0 mph 22.0 mph 81 % 0.00 in 216 W/m2
09:57 60.3 °F 54.7 °F 30.04 in WNW 10.0 mph 19.0 mph 82 % 0.00 in 292 W/m2
10:02 60.3 °F 54.7 °F 30.04 in WNW 10.0 mph 19.0 mph 82 % 0.00 in 413 W/m2
10:07 60.6 °F 55.1 °F 30.04 in WNW 10.0 mph 21.0 mph 82 % 0.00 in 258 W/m2
10:12 61.0 °F 55.4 °F 30.04 in WNW 10.0 mph 21.0 mph 82 % 0.00 in 279 W/m2
10:17 61.0 °F 55.1 °F 30.05 in WNW 9.0 mph 16.0 mph 81 % 0.00 in 253 W/m2
10:22 61.0 °F 55.1 °F 30.05 in WNW 9.0 mph 19.0 mph 81 % 0.00 in 406 W/m2
10:27 61.2 °F 54.9 °F 30.05 in WNW 9.0 mph 19.0 mph 80 % 0.00 in 341 W/m2
10:32 61.3 °F 54.8 °F 30.05 in WNW 10.0 mph 21.0 mph 79 % 0.00 in 408 W/m2
10:37 61.3 °F 54.8 °F 30.05 in WNW 10.0 mph 21.0 mph 79 % 0.00 in 369 W/m2
10:42 61.9 °F 55.3 °F 30.05 in WNW 10.0 mph 19.0 mph 79 % 0.00 in 483 W/m2
10:47 62.2 °F 54.9 °F 30.05 in WNW 12.0 mph 21.0 mph 77 % 0.00 in 464 W/m2
10:52 62.4 °F 54.8 °F 30.05 in WNW 12.0 mph 22.0 mph 76 % 0.00 in 422 W/m2
10:54 62.4 °F 54.8 °F 30.05 in WNW 13.0 mph 22.0 mph 76 % 0.00 in 392 W/m2
10:59 62.4 °F 54.4 °F 30.05 in WNW 12.0 mph 22.0 mph 75 % 0.00 in 369 W/m2
11:04 62.2 °F 54.9 °F 30.05 in WNW 11.0 mph 22.0 mph 77 % 0.00 in 313 W/m2
11:09 62.2 °F 54.6 °F 30.05 in WNW 10.0 mph 19.0 mph 76 % 0.00 in 527 W/m2
11:14 62.2 °F 54.6 °F 30.05 in WNW 12.0 mph 24.0 mph 76 % 0.00 in 536 W/m2
11:19 62.4 °F 55.1 °F 30.04 in West 12.0 mph 24.0 mph 77 % 0.00 in 749 W/m2
11:24 63.0 °F 55.3 °F 30.05 in West 10.0 mph 18.0 mph 76 % 0.00 in 246 W/m2
11:29 63.0 °F 55.3 °F 30.05 in West 9.0 mph 15.0 mph 76 % 0.00 in 279 W/m2
11:34 63.1 °F 55.4 °F 30.05 in WNW 9.0 mph 16.0 mph 76 % 0.00 in 626 W/m2
11:39 63.3 °F 55.3 °F 30.05 in WNW 9.0 mph 16.0 mph 75 % 0.00 in 656 W/m2
11:44 63.7 °F 55.2 °F 30.05 in WNW 10.0 mph 18.0 mph 74 % 0.00 in 320 W/m2
11:49 63.7 °F 55.2 °F 30.04 in WNW 10.0 mph 18.0 mph 74 % 0.00 in 413 W/m2
11:54 63.7 °F 55.2 °F 30.05 in WNW 11.0 mph 20.0 mph 74 % 0.00 in 457 W/m2
11:59 64.0 °F 55.2 °F 30.05 in WNW 10.0 mph 20.0 mph 73 % 0.00 in 979 W/m2
12:04 64.2 °F 55.0 °F 30.05 in West 10.0 mph 19.0 mph 72 % 0.00 in 608 W/m2
12:09 64.6 °F 55.3 °F 30.05 in West 11.0 mph 23.0 mph 72 % 0.00 in 548 W/m2
12:14 64.8 °F 55.1 °F 30.05 in West 12.0 mph 23.0 mph 71 % 0.00 in 522 W/m2
12:19 65.1 °F 55.1 °F 30.05 in WNW 11.0 mph 19.0 mph 70 % 0.00 in 403 W/m2
12:24 65.1 °F 55.5 °F 30.04 in WNW 9.0 mph 15.0 mph 71 % 0.00 in 452 W/m2
12:34 65.5 °F 55.4 °F 30.05 in WNW 9.0 mph 18.0 mph 70 % 0.00 in 492 W/m2
12:39 65.8 °F 55.4 °F 30.05 in WNW 9.0 mph 16.0 mph 69 % 0.00 in 1111 W/m2
12:44 66.2 °F 55.7 °F 30.05 in WNW 9.0 mph 15.0 mph 69 % 0.00 in 1178 W/m2
12:49 66.7 °F 55.4 °F 30.05 in WNW 8.0 mph 15.0 mph 67 % 0.00 in 557 W/m2
12:54 66.9 °F 55.6 °F 30.05 in WNW 8.0 mph 15.0 mph 67 % 0.00 in 487 W/m2
12:59 66.9 °F 55.6 °F 30.05 in WNW 8.0 mph 16.0 mph 67 % 0.00 in 448 W/m2
13:04 66.7 °F 55.4 °F 30.05 in West 8.0 mph 16.0 mph 67 % 0.00 in 564 W/m2
13:09 66.9 °F 55.2 °F 30.05 in WNW 8.0 mph 16.0 mph 66 % 0.00 in 492 W/m2
13:14 66.9 °F 55.2 °F 30.05 in WNW 9.0 mph 16.0 mph 66 % 0.00 in 492 W/m2
13:19 67.1 °F 55.8 °F 30.05 in WNW 8.0 mph 15.0 mph 67 % 0.00 in 422 W/m2
13:25 67.3 °F 55.5 °F 30.05 in WNW 8.0 mph 16.0 mph 66 % 0.00 in 754 W/m2
13:30 67.3 °F 55.5 °F 30.04 in WNW 9.0 mph 16.0 mph 66 % 0.00 in 724 W/m2
13:35 67.1 °F 55.8 °F 30.04 in WNW 9.0 mph 14.0 mph 67 % 0.00 in 731 W/m2
13:40 67.3 °F 55.5 °F 30.04 in WNW 9.0 mph 15.0 mph 66 % 0.00 in 752 W/m2
13:45 66.9 °F 55.2 °F 30.05 in West 10.0 mph 15.0 mph 66 % 0.00 in 835 W/m2
13:50 67.3 °F 55.5 °F 30.05 in West 9.0 mph 15.0 mph 66 % 0.00 in 436 W/m2
13:51 67.3 °F 55.5 °F 30.05 in West 9.0 mph 15.0 mph 66 % 0.00 in 469 W/m2
13:56 67.1 °F 54.9 °F 30.05 in WNW 8.0 mph 15.0 mph 65 % 0.00 in 668 W/m2
14:01 66.9 °F 54.8 °F 30.05 in WNW 9.0 mph 14.0 mph 65 % 0.00 in 657 W/m2
14:06 67.5 °F 55.7 °F 30.05 in WNW 8.0 mph 14.0 mph 66 % 0.00 in 707 W/m2
14:07 67.5 °F 55.7 °F 30.05 in WNW 8.0 mph 14.0 mph 66 % 0.00 in 828 W/m2
14:12 68.0 °F 56.2 °F 30.05 in WNW 8.0 mph 14.0 mph 66 % 0.00 in 909 W/m2
14:17 68.4 °F 55.7 °F 30.05 in NW 9.0 mph 15.0 mph 64 % 0.00 in 759 W/m2
14:22 68.2 °F 55.5 °F 30.04 in WNW 9.0 mph 15.0 mph 64 % 0.00 in 561 W/m2
14:27 68.2 °F 56.0 °F 30.05 in WNW 9.0 mph 18.0 mph 65 % 0.00 in 670 W/m2
14:32 68.4 °F 56.1 °F 30.05 in WNW 10.0 mph 18.0 mph 65 % 0.00 in 824 W/m2
14:37 68.7 °F 55.6 °F 30.04 in NW 9.0 mph 16.0 mph 63 % 0.00 in 868 W/m2
14:43 68.9 °F 55.3 °F 30.05 in NW 8.0 mph 14.0 mph 62 % 0.00 in 979 W/m2
14:48 69.1 °F 56.4 °F 30.05 in NW 8.0 mph 13.0 mph 64 % 0.00 in 847 W/m2
14:53 69.3 °F 55.7 °F 30.04 in NW 9.0 mph 15.0 mph 62 % 0.00 in 819 W/m2
14:58 69.3 °F 55.7 °F 30.05 in NW 9.0 mph 15.0 mph 62 % 0.00 in 566 W/m2
15:03 69.3 °F 56.1 °F 30.05 in NW 8.0 mph 15.0 mph 63 % 0.00 in 770 W/m2
15:08 69.3 °F 55.7 °F 30.04 in WNW 8.0 mph 14.0 mph 62 % 0.00 in 853 W/m2
15:13 69.6 °F 55.6 °F 30.05 in WNW 9.0 mph 15.0 mph 61 % 0.00 in 856 W/m2
15:18 68.9 °F 54.9 °F 30.05 in WNW 9.0 mph 15.0 mph 61 % 0.00 in 279 W/m2
15:23 68.4 °F 55.3 °F 30.05 in WNW 7.0 mph 13.0 mph 63 % 0.00 in 367 W/m2
15:28 68.2 °F 55.5 °F 30.05 in WNW 6.0 mph 13.0 mph 64 % 0.00 in 515 W/m2
15:33 68.2 °F 55.1 °F 30.05 in WNW 7.0 mph 13.0 mph 63 % 0.00 in 360 W/m2
15:38 68.2 °F 55.1 °F 30.05 in WNW 8.0 mph 13.0 mph 63 % 0.00 in 387 W/m2
15:43 68.0 °F 55.4 °F 30.04 in NW 7.0 mph 13.0 mph 64 % 0.00 in 381 W/m2
15:48 68.0 °F 55.4 °F 30.04 in NW 6.0 mph 13.0 mph 64 % 0.00 in 390 W/m2
15:53 67.8 °F 55.6 °F 30.04 in WNW 6.0 mph 13.0 mph 65 % 0.00 in 399 W/m2
15:58 67.8 °F 55.6 °F 30.04 in WNW 6.0 mph 13.0 mph 65 % 0.00 in 369 W/m2
16:03 67.8 °F 55.6 °F 30.03 in WNW 6.0 mph 11.0 mph 65 % 0.00 in 345 W/m2
16:08 67.8 °F 55.2 °F 30.03 in WNW 6.0 mph 11.0 mph 64 % 0.00 in 512 W/m2
16:13 68.2 °F 56.0 °F 30.03 in NW 7.0 mph 13.0 mph 65 % 0.00 in 643 W/m2
16:18 68.7 °F 56.0 °F 30.02 in WNW 7.0 mph 13.0 mph 64 % 0.00 in 628 W/m2
16:23 69.1 °F 56.0 °F 30.03 in WNW 7.0 mph 11.0 mph 63 % 0.00 in 294 W/m2
16:28 68.9 °F 55.3 °F 30.02 in NW 7.0 mph 13.0 mph 62 % 0.00 in 338 W/m2
16:33 68.5 °F 55.4 °F 30.02 in WNW 7.0 mph 13.0 mph 63 % 0.00 in 336 W/m2
16:38 68.4 °F 55.7 °F 30.03 in WNW 6.0 mph 12.0 mph 64 % 0.00 in 322 W/m2
16:43 68.2 °F 55.5 °F 30.02 in NW 5.0 mph 10.0 mph 64 % 0.00 in 585 W/m2
16:48 68.5 °F 56.3 °F 30.02 in WNW 5.0 mph 10.0 mph 65 % 0.00 in 448 W/m2
16:53 68.7 °F 56.0 °F 30.03 in NW 6.0 mph 11.0 mph 64 % 0.00 in 339 W/m2
16:58 68.7 °F 56.0 °F 30.03 in NW 5.0 mph 11.0 mph 64 % 0.00 in 272 W/m2
17:03 68.5 °F 55.9 °F 30.03 in WNW 5.0 mph 9.0 mph 64 % 0.00 in 367 W/m2
17:08 68.5 °F 56.3 °F 30.02 in WNW 5.0 mph 10.0 mph 65 % 0.00 in 308 W/m2
17:13 68.4 °F 55.7 °F 30.02 in WNW 6.0 mph 10.0 mph 64 % 0.00 in 320 W/m2
17:18 68.2 °F 56.0 °F 30.03 in WNW 5.0 mph 9.0 mph 65 % 0.00 in 318 W/m2
17:23 68.0 °F 55.8 °F 30.03 in West 6.0 mph 10.0 mph 65 % 0.00 in 570 W/m2
17:26 68.2 °F 56.0 °F 30.02 in West 6.0 mph 10.0 mph 65 % 0.00 in 543 W/m2
17:31 68.4 °F 56.1 °F 30.02 in WNW 5.0 mph 10.0 mph 65 % 0.00 in 287 W/m2
17:36 68.7 °F 56.0 °F 30.02 in WNW 4.0 mph 8.0 mph 64 % 0.00 in 308 W/m2
17:41 68.7 °F 55.6 °F 30.01 in WNW 5.0 mph 10.0 mph 63 % 0.00 in 327 W/m2
17:46 68.7 °F 55.6 °F 30.01 in NW 4.0 mph 10.0 mph 63 % 0.00 in 383 W/m2
17:51 68.7 °F 55.6 °F 30.01 in NW 5.0 mph 11.0 mph 63 % 0.00 in 339 W/m2
17:56 68.7 °F 55.6 °F 30.01 in WNW 5.0 mph 11.0 mph 63 % 0.00 in 424 W/m2
18:01 68.9 °F 55.8 °F 30.01 in WNW 5.0 mph 9.0 mph 63 % 0.00 in 334 W/m2
18:06 68.7 °F 55.2 °F 30.01 in NW 5.0 mph 10.0 mph 62 % 0.00 in 172 W/m2
18:11 68.7 °F 55.6 °F 30.01 in NW 5.0 mph 10.0 mph 63 % 0.00 in 167 W/m2
18:16 68.5 °F 55.9 °F 30.01 in WNW 4.0 mph 8.0 mph 64 % 0.00 in 148 W/m2
18:21 68.4 °F 55.3 °F 30.01 in WNW 5.0 mph 11.0 mph 63 % 0.00 in 269 W/m2
18:22 68.4 °F 55.7 °F 30.01 in WNW 5.0 mph 11.0 mph 64 % 0.00 in 241 W/m2
18:27 68.4 °F 56.1 °F 30.01 in NW 4.0 mph 11.0 mph 65 % 0.00 in 267 W/m2
18:32 68.4 °F 55.7 °F 30.01 in NW 3.0 mph 7.0 mph 64 % 0.00 in 192 W/m2
18:37 68.5 °F 56.3 °F 30.01 in NW 4.0 mph 8.0 mph 65 % 0.00 in 165 W/m2
18:42 68.4 °F 56.1 °F 30.00 in NW 3.0 mph 8.0 mph 65 % 0.00 in 202 W/m2
18:47 68.2 °F 56.4 °F 30.01 in NW 4.0 mph 9.0 mph 66 % 0.00 in 192 W/m2
18:52 67.8 °F 56.0 °F 30.01 in NW 5.0 mph 9.0 mph 66 % 0.00 in 141 W/m2
18:57 67.5 °F 55.7 °F 30.01 in NW 4.0 mph 9.0 mph 66 % 0.00 in 123 W/m2
19:02 67.3 °F 55.5 °F 30.01 in NW 4.0 mph 9.0 mph 66 % 0.00 in 118 W/m2
19:07 66.9 °F 55.2 °F 30.01 in NW 2.0 mph 8.0 mph 66 % 0.00 in 116 W/m2
19:12 66.7 °F 55.4 °F 30.01 in NNW 1.0 mph 5.0 mph 67 % 0.00 in 121 W/m2
19:17 66.6 °F 55.3 °F 30.01 in NNW 2.0 mph 7.0 mph 67 % 0.00 in 130 W/m2
19:22 66.6 °F 55.7 °F 30.01 in NNW 3.0 mph 7.0 mph 68 % 0.00 in 148 W/m2
19:27 66.6 °F 56.1 °F 30.01 in NNW 1.0 mph 5.0 mph 69 % 0.00 in 128 W/m2
19:32 66.6 °F 55.7 °F 30.01 in NNW 2.0 mph 6.0 mph 68 % 0.00 in 141 W/m2
19:38 66.4 °F 55.5 °F 30.01 in NNW 1.0 mph 6.0 mph 68 % 0.00 in 127 W/m2
19:43 66.4 °F 55.1 °F 30.01 in Calm   5.0 mph 67 % 0.00 in 121 W/m2
19:48 66.4 °F 55.5 °F 30.01 in Calm   5.0 mph 68 % 0.00 in 100 W/m2
19:53 66.0 °F 55.2 °F 30.01 in Calm   4.0 mph 68 % 0.00 in 83 W/m2
19:58 65.8 °F 55.0 °F 30.01 in Calm   2.0 mph 68 % 0.00 in 63 W/m2
20:03 65.7 °F 55.2 °F 30.01 in Calm   1.0 mph 69 % 0.00 in 51 W/m2
20:08 65.5 °F 55.4 °F 30.01 in Calm   2.0 mph 70 % 0.00 in 46 W/m2
20:13 65.5 °F 55.8 °F 30.01 in Calm   2.0 mph 71 % 0.00 in 44 W/m2
20:18 65.5 °F 56.2 °F 30.02 in Calm   2.0 mph 72 % 0.00 in 37 W/m2
20:23 65.5 °F 55.8 °F 30.02 in NNW 1.0 mph 2.0 mph 71 % 0.00 in 28 W/m2
20:28 65.3 °F 55.7 °F 30.02 in NNW 1.0 mph 2.0 mph 71 % 0.00 in 25 W/m2
20:33 65.1 °F 55.5 °F 30.02 in NNW 1.0 mph 2.0 mph 71 % 0.00 in 19 W/m2
20:38 64.9 °F 55.3 °F 30.02 in Calm   2.0 mph 71 % 0.00 in 14 W/m2
20:43 64.9 °F 55.3 °F 30.02 in NNW 1.0 mph 3.0 mph 71 % 0.00 in 12 W/m2
20:48 64.8 °F 55.5 °F 30.02 in NNW 1.0 mph 3.0 mph 72 % 0.00 in 11 W/m2
20:53 64.4 °F 55.6 °F 30.02 in NNW 1.0 mph 3.0 mph 73 % 0.00 in 9 W/m2
20:58 64.2 °F 55.8 °F 30.02 in Calm   1.0 mph 74 % 0.00 in 7 W/m2
21:03 64.0 °F 55.6 °F 30.02 in Calm     74 % 0.00 in 5 W/m2
21:08 63.9 °F 55.8 °F 30.02 in Calm   1.0 mph 75 % 0.00 in 0 W/m2
21:13 63.7 °F 55.6 °F 30.02 in Calm   1.0 mph 75 % 0.00 in 0 W/m2
21:18 63.5 °F 55.8 °F 30.02 in Calm   1.0 mph 76 % 0.00 in 0 W/m2
21:23 63.3 °F 55.6 °F 30.03 in Calm   1.0 mph 76 % 0.00 in 0 W/m2
21:28 63.3 °F 56.0 °F 30.03 in Calm   2.0 mph 77 % 0.00 in 0 W/m2
21:33 63.1 °F 55.8 °F 30.03 in Calm   2.0 mph 77 % 0.00 in 0 W/m2
21:38 63.1 °F 55.8 °F 30.03 in Calm   1.0 mph 77 % 0.00 in 0 W/m2
21:43 63.0 °F 55.6 °F 30.03 in Calm     77 % 0.00 in 0 W/m2
21:48 62.8 °F 55.8 °F 30.03 in Calm     78 % 0.00 in 0 W/m2
21:53 62.8 °F 55.8 °F 30.03 in Calm     78 % 0.00 in 0 W/m2
21:58 62.8 °F 56.2 °F 30.03 in Calm     79 % 0.00 in 0 W/m2
22:03 62.6 °F 56.0 °F 30.04 in Calm     79 % 0.00 in 0 W/m2
22:08 62.4 °F 55.5 °F 30.04 in NE 1.0 mph 7.0 mph 78 % 0.00 in 0 W/m2
22:13 62.2 °F 55.3 °F 30.03 in NE 2.0 mph 8.0 mph 78 % 0.00 in 0 W/m2
22:18 62.4 °F 55.8 °F 30.03 in ENE 3.0 mph 9.0 mph 79 % 0.00 in 0 W/m2
22:23 62.4 °F 56.2 °F 30.03 in ENE 3.0 mph 9.0 mph 80 % 0.00 in 0 W/m2
22:26 62.4 °F 56.5 °F 30.03 in ENE 3.0 mph 7.0 mph 81 % 0.00 in 0 W/m2
22:31 62.2 °F 56.3 °F 30.03 in East 3.0 mph 7.0 mph 81 % 0.00 in 0 W/m2
22:36 62.2 °F 56.7 °F 30.03 in East 3.0 mph 8.0 mph 82 % 0.00 in 0 W/m2
22:41 61.9 °F 56.3 °F 30.03 in ENE 4.0 mph 8.0 mph 82 % 0.00 in 0 W/m2
22:46 61.7 °F 56.1 °F 30.02 in ENE 4.0 mph 8.0 mph 82 % 0.00 in 0 W/m2
22:51 61.5 °F 56.0 °F 30.02 in ENE 4.0 mph 8.0 mph 82 % 0.00 in 0 W/m2
22:56 61.3 °F 56.1 °F 30.02 in ENE 3.0 mph 8.0 mph 83 % 0.00 in 0 W/m2
23:01 61.2 °F 56.0 °F 30.02 in ENE 4.0 mph 9.0 mph 83 % 0.00 in 0 W/m2
23:06 61.0 °F 55.8 °F 30.02 in ENE 5.0 mph 9.0 mph 83 % 0.00 in 0 W/m2
23:11 61.0 °F 55.8 °F 30.02 in ENE 4.0 mph 9.0 mph 83 % 0.00 in 0 W/m2
23:17 60.8 °F 55.9 °F 30.02 in ENE 4.0 mph 9.0 mph 84 % 0.00 in 0 W/m2
23:22 60.6 °F 55.8 °F 30.02 in ENE 5.0 mph 9.0 mph 84 % 0.00 in 0 W/m2
23:27 60.4 °F 55.6 °F 30.02 in ENE 4.0 mph 9.0 mph 84 % 0.00 in 0 W/m2
23:32 60.4 °F 55.9 °F 30.02 in ENE 4.0 mph 8.0 mph 85 % 0.00 in 0 W/m2
23:37 60.3 °F 55.7 °F 30.02 in ENE 4.0 mph 7.0 mph 85 % 0.00 in 0 W/m2
23:42 60.1 °F 55.9 °F 30.02 in ENE 4.0 mph 8.0 mph 86 % 0.00 in 0 W/m2
23:47 60.1 °F 55.9 °F 30.02 in ENE 4.0 mph 9.0 mph 86 % 0.00 in 0 W/m2
23:52 59.7 °F 55.8 °F 30.02 in ENE 5.0 mph 10.0 mph 87 % 0.00 in 0 W/m2
23:57 59.7 °F 55.8 °F 30.02 in ENE 5.0 mph 10.0 mph 87 % 0.00 in 0 W/m2
Delerius-Weather
Compliments of Weather Underground - 2.25 mb

Data updates at regular intervals.